sensor_id;sensor_type;location;lat;lon;timestamp;temperature;humidity
21563;DHT22;10942;47.894;11.424;2024-03-06T01:17:26;4.70;99.90
21563;DHT22;10942;47.894;11.424;2024-03-06T02:42:57;3.20;99.90
21563;DHT22;10942;47.894;11.424;2024-03-06T02:45:23;3.10;99.90
21563;DHT22;10942;47.894;11.424;2024-03-06T02:47:49;3.00;99.90
21563;DHT22;10942;47.894;11.424;2024-03-06T02:50:15;3.10;99.90
21563;DHT22;10942;47.894;11.424;2024-03-06T02:52:40;3.10;99.90
21563;DHT22;10942;47.894;11.424;2024-03-06T02:55:06;3.20;99.90
21563;DHT22;10942;47.894;11.424;2024-03-06T02:57:32;3.20;99.90
21563;DHT22;10942;47.894;11.424;2024-03-06T02:59:58;3.10;99.90
21563;DHT22;10942;47.894;11.424;2024-03-06T03:02:24;3.20;99.90
21563;DHT22;10942;47.894;11.424;2024-03-06T03:04:51;2.90;99.90
21563;DHT22;10942;47.894;11.424;2024-03-06T03:07:18;2.80;99.90
21563;DHT22;10942;47.894;11.424;2024-03-06T03:09:45;2.70;99.90
21563;DHT22;10942;47.894;11.424;2024-03-06T03:12:11;2.70;99.90
21563;DHT22;10942;47.894;11.424;2024-03-06T03:14:37;2.60;99.90
21563;DHT22;10942;47.894;11.424;2024-03-06T03:17:03;2.80;99.90
21563;DHT22;10942;47.894;11.424;2024-03-06T03:19:31;2.80;99.90
21563;DHT22;10942;47.894;11.424;2024-03-06T03:21:57;2.90;99.90
21563;DHT22;10942;47.894;11.424;2024-03-06T03:24:23;3.00;99.90
21563;DHT22;10942;47.894;11.424;2024-03-06T03:26:51;3.00;99.90
21563;DHT22;10942;47.894;11.424;2024-03-06T03:29:17;3.10;99.90
21563;DHT22;10942;47.894;11.424;2024-03-06T03:31:43;3.10;99.90
21563;DHT22;10942;47.894;11.424;2024-03-06T03:34:09;3.10;99.90
21563;DHT22;10942;47.894;11.424;2024-03-06T03:36:40;3.10;99.90
21563;DHT22;10942;47.894;11.424;2024-03-06T03:39:06;3.10;99.90
21563;DHT22;10942;47.894;11.424;2024-03-06T03:41:37;2.90;99.90
21563;DHT22;10942;47.894;11.424;2024-03-06T03:44:02;2.90;99.90
21563;DHT22;10942;47.894;11.424;2024-03-06T03:46:29;2.90;99.90
21563;DHT22;10942;47.894;11.424;2024-03-06T03:48:55;3.00;99.90
21563;DHT22;10942;47.894;11.424;2024-03-06T03:51:20;3.00;99.90
21563;DHT22;10942;47.894;11.424;2024-03-06T03:53:46;3.10;99.90
21563;DHT22;10942;47.894;11.424;2024-03-06T03:56:16;3.10;99.90
21563;DHT22;10942;47.894;11.424;2024-03-06T03:58:41;3.10;99.90
21563;DHT22;10942;47.894;11.424;2024-03-06T04:01:12;3.10;99.90
21563;DHT22;10942;47.894;11.424;2024-03-06T04:03:38;3.00;99.90
21563;DHT22;10942;47.894;11.424;2024-03-06T04:06:04;2.90;99.90
21563;DHT22;10942;47.894;11.424;2024-03-06T04:08:30;2.80;99.90
21563;DHT22;10942;47.894;11.424;2024-03-06T04:10:55;2.80;99.90
21563;DHT22;10942;47.894;11.424;2024-03-06T04:13:21;3.00;99.90
21563;DHT22;10942;47.894;11.424;2024-03-06T04:15:47;3.00;99.90
21563;DHT22;10942;47.894;11.424;2024-03-06T04:18:12;2.80;99.90
21563;DHT22;10942;47.894;11.424;2024-03-06T04:20:38;2.90;99.90
21563;DHT22;10942;47.894;11.424;2024-03-06T04:23:04;2.80;99.90
21563;DHT22;10942;47.894;11.424;2024-03-06T04:25:30;2.50;99.90
21563;DHT22;10942;47.894;11.424;2024-03-06T04:27:55;2.60;99.90
21563;DHT22;10942;47.894;11.424;2024-03-06T04:32:47;2.40;99.90
21563;DHT22;10942;47.894;11.424;2024-03-06T04:35:13;2.30;99.90
21563;DHT22;10942;47.894;11.424;2024-03-06T04:37:39;2.40;99.90
21563;DHT22;10942;47.894;11.424;2024-03-06T04:40:05;2.30;99.90
21563;DHT22;10942;47.894;11.424;2024-03-06T04:42:36;2.40;99.90
21563;DHT22;10942;47.894;11.424;2024-03-06T04:45:13;2.50;99.90
21563;DHT22;10942;47.894;11.424;2024-03-06T04:47:40;2.50;99.90
21563;DHT22;10942;47.894;11.424;2024-03-06T04:50:10;2.60;99.90
21563;DHT22;10942;47.894;11.424;2024-03-06T04:52:37;2.60;99.90
21563;DHT22;10942;47.894;11.424;2024-03-06T04:55:03;2.70;99.90
21563;DHT22;10942;47.894;11.424;2024-03-06T04:57:28;2.60;99.90
21563;DHT22;10942;47.894;11.424;2024-03-06T04:59:54;2.60;99.90
21563;DHT22;10942;47.894;11.424;2024-03-06T05:02:20;2.50;99.90
21563;DHT22;10942;47.894;11.424;2024-03-06T05:04:45;2.50;99.90
21563;DHT22;10942;47.894;11.424;2024-03-06T05:07:12;2.50;99.90
21563;DHT22;10942;47.894;11.424;2024-03-06T05:09:39;2.50;99.90
21563;DHT22;10942;47.894;11.424;2024-03-06T05:12:07;2.30;99.90
21563;DHT22;10942;47.894;11.424;2024-03-06T05:14:33;2.40;99.90
21563;DHT22;10942;47.894;11.424;2024-03-06T05:16:59;2.20;99.90
21563;DHT22;10942;47.894;11.424;2024-03-06T05:19:25;2.20;99.90
21563;DHT22;10942;47.894;11.424;2024-03-06T05:21:57;2.30;99.90
21563;DHT22;10942;47.894;11.424;2024-03-06T05:24:23;2.30;99.90
21563;DHT22;10942;47.894;11.424;2024-03-06T05:26:49;2.30;99.90
21563;DHT22;10942;47.894;11.424;2024-03-06T05:29:15;2.40;99.90
21563;DHT22;10942;47.894;11.424;2024-03-06T05:31:40;2.40;99.90
21563;DHT22;10942;47.894;11.424;2024-03-06T05:34:06;2.50;99.90
21563;DHT22;10942;47.894;11.424;2024-03-06T05:36:32;2.60;99.90
21563;DHT22;10942;47.894;11.424;2024-03-06T05:38:58;2.50;99.90
21563;DHT22;10942;47.894;11.424;2024-03-06T05:41:23;2.60;99.90
21563;DHT22;10942;47.894;11.424;2024-03-06T05:43:49;2.70;99.90
21563;DHT22;10942;47.894;11.424;2024-03-06T05:46:15;2.70;99.90
21563;DHT22;10942;47.894;11.424;2024-03-06T05:48:41;2.70;99.90
21563;DHT22;10942;47.894;11.424;2024-03-06T05:51:07;2.60;99.90
21563;DHT22;10942;47.894;11.424;2024-03-06T05:53:39;2.70;99.90
21563;DHT22;10942;47.894;11.424;2024-03-06T05:56:08;2.80;99.90
21563;DHT22;10942;47.894;11.424;2024-03-06T05:58:33;2.80;99.90
21563;DHT22;10942;47.894;11.424;2024-03-06T06:01:02;2.70;99.90
21563;DHT22;10942;47.894;11.424;2024-03-06T06:03:31;2.70;99.90
21563;DHT22;10942;47.894;11.424;2024-03-06T06:05:58;2.70;99.90
21563;DHT22;10942;47.894;11.424;2024-03-06T06:08:24;2.70;99.90
21563;DHT22;10942;47.894;11.424;2024-03-06T06:10:50;2.70;99.90
21563;DHT22;10942;47.894;11.424;2024-03-06T06:13:18;2.50;99.90
21563;DHT22;10942;47.894;11.424;2024-03-06T06:15:44;2.60;99.90
21563;DHT22;10942;47.894;11.424;2024-03-06T06:18:09;2.60;99.90
21563;DHT22;10942;47.894;11.424;2024-03-06T06:20:35;2.50;99.90
21563;DHT22;10942;47.894;11.424;2024-03-06T06:23:01;2.60;99.90
21563;DHT22;10942;47.894;11.424;2024-03-06T06:25:27;2.70;99.90
21563;DHT22;10942;47.894;11.424;2024-03-06T06:27:53;2.70;99.90
21563;DHT22;10942;47.894;11.424;2024-03-06T06:30:19;2.60;99.90
21563;DHT22;10942;47.894;11.424;2024-03-06T06:32:45;2.40;99.90
21563;DHT22;10942;47.894;11.424;2024-03-06T06:35:10;2.40;99.90
21563;DHT22;10942;47.894;11.424;2024-03-06T06:37:39;2.20;99.90
21563;DHT22;10942;47.894;11.424;2024-03-06T06:40:07;2.30;99.90
21563;DHT22;10942;47.894;11.424;2024-03-06T06:42:34;2.40;99.90
21563;DHT22;10942;47.894;11.424;2024-03-06T06:45:00;2.40;99.90
21563;DHT22;10942;47.894;11.424;2024-03-06T06:47:26;2.50;99.90
21563;DHT22;10942;47.894;11.424;2024-03-06T06:49:52;2.60;99.90
21563;DHT22;10942;47.894;11.424;2024-03-06T06:52:18;2.60;99.90
21563;DHT22;10942;47.894;11.424;2024-03-06T06:54:44;2.60;99.90
21563;DHT22;10942;47.894;11.424;2024-03-06T06:57:10;2.50;99.90
21563;DHT22;10942;47.894;11.424;2024-03-06T06:59:36;2.50;99.90
21563;DHT22;10942;47.894;11.424;2024-03-06T07:02:02;2.40;99.90
21563;DHT22;10942;47.894;11.424;2024-03-06T07:04:28;2.40;99.90
21563;DHT22;10942;47.894;11.424;2024-03-06T07:06:54;2.30;99.90
21563;DHT22;10942;47.894;11.424;2024-03-06T07:09:20;2.30;99.90
21563;DHT22;10942;47.894;11.424;2024-03-06T07:11:45;2.40;99.90
21563;DHT22;10942;47.894;11.424;2024-03-06T07:14:14;2.50;99.90
21563;DHT22;10942;47.894;11.424;2024-03-06T07:16:44;2.60;99.90
21563;DHT22;10942;47.894;11.424;2024-03-06T07:19:10;2.70;99.90
21563;DHT22;10942;47.894;11.424;2024-03-06T07:21:36;2.70;99.90
21563;DHT22;10942;47.894;11.424;2024-03-06T07:24:01;2.80;99.90
21563;DHT22;10942;47.894;11.424;2024-03-06T07:26:27;2.80;99.90
21563;DHT22;10942;47.894;11.424;2024-03-06T07:28:55;2.80;99.90
21563;DHT22;10942;47.894;11.424;2024-03-06T07:31:21;2.90;99.90
21563;DHT22;10942;47.894;11.424;2024-03-06T07:33:47;2.90;99.90
21563;DHT22;10942;47.894;11.424;2024-03-06T07:36:12;2.90;99.90
21563;DHT22;10942;47.894;11.424;2024-03-06T07:38:38;2.80;99.90
21563;DHT22;10942;47.894;11.424;2024-03-06T07:41:04;2.80;99.90
21563;DHT22;10942;47.894;11.424;2024-03-06T07:43:29;2.70;99.90
21563;DHT22;10942;47.894;11.424;2024-03-06T07:45:55;2.60;99.90
21563;DHT22;10942;47.894;11.424;2024-03-06T07:48:21;2.60;99.90
21563;DHT22;10942;47.894;11.424;2024-03-06T07:50:46;2.70;99.90
21563;DHT22;10942;47.894;11.424;2024-03-06T07:53:12;2.80;99.90
21563;DHT22;10942;47.894;11.424;2024-03-06T07:55:38;2.90;99.90
21563;DHT22;10942;47.894;11.424;2024-03-06T07:58:04;2.80;99.90
21563;DHT22;10942;47.894;11.424;2024-03-06T08:00:30;2.80;99.90
21563;DHT22;10942;47.894;11.424;2024-03-06T08:02:57;2.70;99.90
21563;DHT22;10942;47.894;11.424;2024-03-06T08:05:22;2.60;99.90
21563;DHT22;10942;47.894;11.424;2024-03-06T08:07:48;2.70;99.90
21563;DHT22;10942;47.894;11.424;2024-03-06T08:10:14;2.80;99.90
21563;DHT22;10942;47.894;11.424;2024-03-06T08:12:44;2.90;99.90
21563;DHT22;10942;47.894;11.424;2024-03-06T08:15:12;2.90;99.90
21563;DHT22;10942;47.894;11.424;2024-03-06T08:17:48;2.90;99.90
21563;DHT22;10942;47.894;11.424;2024-03-06T08:20:15;3.00;99.90
21563;DHT22;10942;47.894;11.424;2024-03-06T08:22:42;3.00;99.90
21563;DHT22;10942;47.894;11.424;2024-03-06T08:25:08;2.90;99.90
21563;DHT22;10942;47.894;11.424;2024-03-06T08:27:36;2.90;99.90
21563;DHT22;10942;47.894;11.424;2024-03-06T08:30:06;2.90;99.90
21563;DHT22;10942;47.894;11.424;2024-03-06T08:32:32;3.00;99.90
21563;DHT22;10942;47.894;11.424;2024-03-06T08:35:03;3.00;99.90
21563;DHT22;10942;47.894;11.424;2024-03-06T08:37:34;3.10;99.90
21563;DHT22;10942;47.894;11.424;2024-03-06T08:40:00;3.10;99.90
21563;DHT22;10942;47.894;11.424;2024-03-06T08:42:28;3.10;99.90
21563;DHT22;10942;47.894;11.424;2024-03-06T08:44:54;3.10;99.90
21563;DHT22;10942;47.894;11.424;2024-03-06T08:47:19;3.10;99.90
21563;DHT22;10942;47.894;11.424;2024-03-06T08:49:45;3.20;99.90
21563;DHT22;10942;47.894;11.424;2024-03-06T08:52:11;3.20;99.90
21563;DHT22;10942;47.894;11.424;2024-03-06T08:54:37;3.30;99.90
21563;DHT22;10942;47.894;11.424;2024-03-06T08:57:03;3.30;99.90
21563;DHT22;10942;47.894;11.424;2024-03-06T08:59:29;3.20;99.90
21563;DHT22;10942;47.894;11.424;2024-03-06T09:01:55;3.30;99.90
21563;DHT22;10942;47.894;11.424;2024-03-06T09:04:22;3.10;99.90
21563;DHT22;10942;47.894;11.424;2024-03-06T09:06:47;3.10;99.90
21563;DHT22;10942;47.894;11.424;2024-03-06T09:09:14;3.10;99.90
21563;DHT22;10942;47.894;11.424;2024-03-06T09:11:43;3.20;99.90
21563;DHT22;10942;47.894;11.424;2024-03-06T09:14:09;3.00;99.90
21563;DHT22;10942;47.894;11.424;2024-03-06T09:16:36;3.10;99.90
21563;DHT22;10942;47.894;11.424;2024-03-06T09:19:01;3.10;99.90
21563;DHT22;10942;47.894;11.424;2024-03-06T09:21:28;3.20;99.90
21563;DHT22;10942;47.894;11.424;2024-03-06T09:23:54;3.10;99.90
21563;DHT22;10942;47.894;11.424;2024-03-06T09:26:20;3.30;99.90
21563;DHT22;10942;47.894;11.424;2024-03-06T09:28:48;3.30;99.90
21563;DHT22;10942;47.894;11.424;2024-03-06T09:31:15;3.30;99.90
21563;DHT22;10942;47.894;11.424;2024-03-06T09:33:40;3.30;99.90
21563;DHT22;10942;47.894;11.424;2024-03-06T09:36:07;3.30;99.90
21563;DHT22;10942;47.894;11.424;2024-03-06T09:38:32;3.40;99.90
21563;DHT22;10942;47.894;11.424;2024-03-06T09:40:58;3.40;99.90
21563;DHT22;10942;47.894;11.424;2024-03-06T09:43:24;3.40;99.90
21563;DHT22;10942;47.894;11.424;2024-03-06T09:45:51;3.40;99.90
21563;DHT22;10942;47.894;11.424;2024-03-06T09:48:20;3.30;99.90
21563;DHT22;10942;47.894;11.424;2024-03-06T09:50:49;3.50;99.90
21563;DHT22;10942;47.894;11.424;2024-03-06T09:53:16;3.50;99.90
21563;DHT22;10942;47.894;11.424;2024-03-06T09:55:42;3.40;99.90
21563;DHT22;10942;47.894;11.424;2024-03-06T09:58:08;3.40;99.90
21563;DHT22;10942;47.894;11.424;2024-03-06T10:00:37;3.50;99.90
21563;DHT22;10942;47.894;11.424;2024-03-06T10:03:03;3.60;99.90
21563;DHT22;10942;47.894;11.424;2024-03-06T10:05:31;3.70;99.90
21563;DHT22;10942;47.894;11.424;2024-03-06T10:08:00;3.80;99.90
21563;DHT22;10942;47.894;11.424;2024-03-06T10:10:26;3.90;99.90
21563;DHT22;10942;47.894;11.424;2024-03-06T10:12:52;3.80;99.90
21563;DHT22;10942;47.894;11.424;2024-03-06T10:15:19;3.90;99.90
21563;DHT22;10942;47.894;11.424;2024-03-06T10:17:44;4.00;99.90
21563;DHT22;10942;47.894;11.424;2024-03-06T10:20:19;4.00;99.90
21563;DHT22;10942;47.894;11.424;2024-03-06T10:22:52;4.10;99.90
21563;DHT22;10942;47.894;11.424;2024-03-06T10:25:22;4.10;99.90
21563;DHT22;10942;47.894;11.424;2024-03-06T10:28:08;4.10;99.90
21563;DHT22;10942;47.894;11.424;2024-03-06T10:30:38;4.20;99.90
21563;DHT22;10942;47.894;11.424;2024-03-06T10:33:07;4.20;99.90
21563;DHT22;10942;47.894;11.424;2024-03-06T10:35:36;4.10;99.90
21563;DHT22;10942;47.894;11.424;2024-03-06T10:38:06;4.20;99.90
21563;DHT22;10942;47.894;11.424;2024-03-06T10:40:34;4.30;99.90
21563;DHT22;10942;47.894;11.424;2024-03-06T10:43:00;4.30;99.90
21563;DHT22;10942;47.894;11.424;2024-03-06T10:45:50;4.30;99.90
21563;DHT22;10942;47.894;11.424;2024-03-06T10:48:19;4.40;99.90
21563;DHT22;10942;47.894;11.424;2024-03-06T10:50:46;4.40;99.90
21563;DHT22;10942;47.894;11.424;2024-03-06T10:53:14;4.50;99.90
21563;DHT22;10942;47.894;11.424;2024-03-06T10:55:42;4.50;99.90
21563;DHT22;10942;47.894;11.424;2024-03-06T10:58:10;4.60;99.90
21563;DHT22;10942;47.894;11.424;2024-03-06T11:00:46;4.50;99.90
21563;DHT22;10942;47.894;11.424;2024-03-06T11:03:13;4.50;99.90
21563;DHT22;10942;47.894;11.424;2024-03-06T11:08:13;4.50;99.90
21563;DHT22;10942;47.894;11.424;2024-03-06T11:10:40;4.50;99.90
21563;DHT22;10942;47.894;11.424;2024-03-06T11:13:25;4.50;99.90
21563;DHT22;10942;47.894;11.424;2024-03-06T11:15:57;4.50;99.90
21563;DHT22;10942;47.894;11.424;2024-03-06T11:23:34;4.60;99.90
21563;DHT22;10942;47.894;11.424;2024-03-06T11:26:04;4.60;99.90
21563;DHT22;10942;47.894;11.424;2024-03-06T11:28:35;4.60;99.90
21563;DHT22;10942;47.894;11.424;2024-03-06T11:31:02;4.60;99.90
21563;DHT22;10942;47.894;11.424;2024-03-06T11:33:34;4.60;99.90
21563;DHT22;10942;47.894;11.424;2024-03-06T11:36:22;4.50;99.90
21563;DHT22;10942;47.894;11.424;2024-03-06T11:39:00;4.30;99.90
21563;DHT22;10942;47.894;11.424;2024-03-06T11:41:27;4.50;99.90
21563;DHT22;10942;47.894;11.424;2024-03-06T11:43:54;4.40;99.90
21563;DHT22;10942;47.894;11.424;2024-03-06T11:49:23;4.60;99.90
21563;DHT22;10942;47.894;11.424;2024-03-06T11:52:02;4.60;99.90
21563;DHT22;10942;47.894;11.424;2024-03-06T11:54:29;4.50;99.90
21563;DHT22;10942;47.894;11.424;2024-03-06T11:56:59;4.60;99.90
21563;DHT22;10942;47.894;11.424;2024-03-06T11:59:27;4.60;99.90
21563;DHT22;10942;47.894;11.424;2024-03-06T12:01:55;4.60;99.90
21563;DHT22;10942;47.894;11.424;2024-03-06T12:04:21;4.50;99.90
21563;DHT22;10942;47.894;11.424;2024-03-06T12:06:48;4.50;99.90
21563;DHT22;10942;47.894;11.424;2024-03-06T12:09:15;4.50;99.90
21563;DHT22;10942;47.894;11.424;2024-03-06T12:11:41;4.50;99.90
21563;DHT22;10942;47.894;11.424;2024-03-06T12:14:20;4.50;99.90
21563;DHT22;10942;47.894;11.424;2024-03-06T12:16:59;4.60;99.90
21563;DHT22;10942;47.894;11.424;2024-03-06T12:19:26;4.50;99.90
21563;DHT22;10942;47.894;11.424;2024-03-06T12:21:53;4.50;99.90
21563;DHT22;10942;47.894;11.424;2024-03-06T12:24:19;4.50;99.90
21563;DHT22;10942;47.894;11.424;2024-03-06T12:26:45;4.60;99.90
21563;DHT22;10942;47.894;11.424;2024-03-06T12:29:17;4.60;99.90
21563;DHT22;10942;47.894;11.424;2024-03-06T12:31:44;4.50;99.90
21563;DHT22;10942;47.894;11.424;2024-03-06T12:34:14;4.40;99.90
21563;DHT22;10942;47.894;11.424;2024-03-06T12:36:43;4.40;99.90
21563;DHT22;10942;47.894;11.424;2024-03-06T12:39:08;4.40;99.90
21563;DHT22;10942;47.894;11.424;2024-03-06T12:41:41;4.40;99.90
21563;DHT22;10942;47.894;11.424;2024-03-06T12:44:07;4.50;99.90
21563;DHT22;10942;47.894;11.424;2024-03-06T12:46:33;4.50;99.90
21563;DHT22;10942;47.894;11.424;2024-03-06T12:48:59;4.50;99.90
21563;DHT22;10942;47.894;11.424;2024-03-06T12:51:25;4.50;99.90
21563;DHT22;10942;47.894;11.424;2024-03-06T12:53:50;4.50;99.90
21563;DHT22;10942;47.894;11.424;2024-03-06T12:56:17;4.40;99.90
21563;DHT22;10942;47.894;11.424;2024-03-06T12:58:43;4.20;99.90
21563;DHT22;10942;47.894;11.424;2024-03-06T13:01:09;4.20;99.90
21563;DHT22;10942;47.894;11.424;2024-03-06T13:03:36;4.20;99.90
21563;DHT22;10942;47.894;11.424;2024-03-06T13:06:02;4.10;99.90
21563;DHT22;10942;47.894;11.424;2024-03-06T13:08:29;4.10;99.90
21563;DHT22;10942;47.894;11.424;2024-03-06T13:10:55;4.20;99.90
21563;DHT22;10942;47.894;11.424;2024-03-06T13:13:22;4.30;99.90
21563;DHT22;10942;47.894;11.424;2024-03-06T13:15:50;4.30;99.90
21563;DHT22;10942;47.894;11.424;2024-03-06T13:18:16;4.20;99.90
21563;DHT22;10942;47.894;11.424;2024-03-06T13:20:42;4.10;99.90
21563;DHT22;10942;47.894;11.424;2024-03-06T13:23:09;4.10;99.90
21563;DHT22;10942;47.894;11.424;2024-03-06T13:25:35;4.10;99.90
21563;DHT22;10942;47.894;11.424;2024-03-06T13:28:00;4.10;99.90
21563;DHT22;10942;47.894;11.424;2024-03-06T13:30:27;4.00;99.90
21563;DHT22;10942;47.894;11.424;2024-03-06T13:32:53;4.00;99.90
21563;DHT22;10942;47.894;11.424;2024-03-06T13:35:19;4.10;99.90
21563;DHT22;10942;47.894;11.424;2024-03-06T13:37:45;4.00;99.90
21563;DHT22;10942;47.894;11.424;2024-03-06T13:40:12;3.90;99.90
21563;DHT22;10942;47.894;11.424;2024-03-06T13:42:42;3.90;99.90
21563;DHT22;10942;47.894;11.424;2024-03-06T13:45:08;3.80;99.90
21563;DHT22;10942;47.894;11.424;2024-03-06T13:47:46;3.70;99.90
21563;DHT22;10942;47.894;11.424;2024-03-06T13:50:14;3.60;99.90
21563;DHT22;10942;47.894;11.424;2024-03-06T13:52:40;3.60;99.90
21563;DHT22;10942;47.894;11.424;2024-03-06T13:55:07;3.80;99.90
21563;DHT22;10942;47.894;11.424;2024-03-06T13:57:34;3.80;99.90
21563;DHT22;10942;47.894;11.424;2024-03-06T14:00:10;3.80;99.90
21563;DHT22;10942;47.894;11.424;2024-03-06T14:02:45;3.60;99.90
21563;DHT22;10942;47.894;11.424;2024-03-06T14:05:12;3.60;99.90
21563;DHT22;10942;47.894;11.424;2024-03-06T14:07:39;3.60;99.90
21563;DHT22;10942;47.894;11.424;2024-03-06T14:10:06;3.70;99.90
21563;DHT22;10942;47.894;11.424;2024-03-06T14:12:34;3.80;99.90
21563;DHT22;10942;47.894;11.424;2024-03-06T14:15:01;3.70;99.90
21563;DHT22;10942;47.894;11.424;2024-03-06T14:17:27;3.60;99.90
21563;DHT22;10942;47.894;11.424;2024-03-06T14:19:52;3.60;99.90
21563;DHT22;10942;47.894;11.424;2024-03-06T14:22:18;3.70;99.90
21563;DHT22;10942;47.894;11.424;2024-03-06T14:24:44;3.70;99.90
21563;DHT22;10942;47.894;11.424;2024-03-06T14:27:10;3.80;99.90
21563;DHT22;10942;47.894;11.424;2024-03-06T14:29:36;3.80;99.90
21563;DHT22;10942;47.894;11.424;2024-03-06T14:32:02;3.80;99.90
21563;DHT22;10942;47.894;11.424;2024-03-06T14:34:28;3.80;99.90
21563;DHT22;10942;47.894;11.424;2024-03-06T14:36:54;3.90;99.90
21563;DHT22;10942;47.894;11.424;2024-03-06T14:39:20;3.90;99.90
21563;DHT22;10942;47.894;11.424;2024-03-06T14:41:48;3.90;99.90
21563;DHT22;10942;47.894;11.424;2024-03-06T14:44:14;3.80;99.90
21563;DHT22;10942;47.894;11.424;2024-03-06T14:46:43;3.90;99.90
21563;DHT22;10942;47.894;11.424;2024-03-06T14:49:09;3.90;99.90
21563;DHT22;10942;47.894;11.424;2024-03-06T14:51:35;3.90;99.90
21563;DHT22;10942;47.894;11.424;2024-03-06T14:54:00;3.90;99.90
21563;DHT22;10942;47.894;11.424;2024-03-06T14:56:26;3.90;99.90
21563;DHT22;10942;47.894;11.424;2024-03-06T14:58:52;4.00;99.90
21563;DHT22;10942;47.894;11.424;2024-03-06T15:01:18;4.00;99.90
21563;DHT22;10942;47.894;11.424;2024-03-06T15:03:44;4.00;99.90
21563;DHT22;10942;47.894;11.424;2024-03-06T15:06:13;4.00;99.90
21563;DHT22;10942;47.894;11.424;2024-03-06T15:08:40;4.00;99.90
21563;DHT22;10942;47.894;11.424;2024-03-06T15:11:06;4.00;99.90
21563;DHT22;10942;47.894;11.424;2024-03-06T15:13:32;4.00;99.90
21563;DHT22;10942;47.894;11.424;2024-03-06T15:15:59;4.10;99.90
21563;DHT22;10942;47.894;11.424;2024-03-06T15:18:24;4.10;99.90
21563;DHT22;10942;47.894;11.424;2024-03-06T15:20:51;4.10;99.90
21563;DHT22;10942;47.894;11.424;2024-03-06T15:23:17;4.00;99.90
21563;DHT22;10942;47.894;11.424;2024-03-06T15:25:43;3.90;99.90
21563;DHT22;10942;47.894;11.424;2024-03-06T15:28:10;3.80;99.90
21563;DHT22;10942;47.894;11.424;2024-03-06T15:30:36;3.90;99.90
21563;DHT22;10942;47.894;11.424;2024-03-06T15:33:03;3.70;99.90
21563;DHT22;10942;47.894;11.424;2024-03-06T15:35:29;3.70;99.90
21563;DHT22;10942;47.894;11.424;2024-03-06T15:37:55;3.70;99.90
21563;DHT22;10942;47.894;11.424;2024-03-06T15:40:22;3.60;99.90
21563;DHT22;10942;47.894;11.424;2024-03-06T15:42:48;3.50;99.90
21563;DHT22;10942;47.894;11.424;2024-03-06T15:45:13;3.50;99.90
21563;DHT22;10942;47.894;11.424;2024-03-06T15:47:39;3.50;99.90
21563;DHT22;10942;47.894;11.424;2024-03-06T15:50:08;3.60;99.90
21563;DHT22;10942;47.894;11.424;2024-03-06T15:52:37;3.50;99.90
21563;DHT22;10942;47.894;11.424;2024-03-06T15:55:06;3.50;99.90
21563;DHT22;10942;47.894;11.424;2024-03-06T15:57:32;3.60;99.90
21563;DHT22;10942;47.894;11.424;2024-03-06T15:59:58;3.60;99.90
21563;DHT22;10942;47.894;11.424;2024-03-06T16:02:24;3.60;99.90
21563;DHT22;10942;47.894;11.424;2024-03-06T16:04:50;3.60;99.90
21563;DHT22;10942;47.894;11.424;2024-03-06T16:07:16;3.60;99.90
21563;DHT22;10942;47.894;11.424;2024-03-06T16:09:41;3.60;99.90
21563;DHT22;10942;47.894;11.424;2024-03-06T16:12:07;3.70;99.90
21563;DHT22;10942;47.894;11.424;2024-03-06T16:14:33;3.70;99.90
21563;DHT22;10942;47.894;11.424;2024-03-06T16:16:59;3.80;99.90
21563;DHT22;10942;47.894;11.424;2024-03-06T16:19:35;3.70;99.90
21563;DHT22;10942;47.894;11.424;2024-03-06T16:22:03;3.80;99.90
21563;DHT22;10942;47.894;11.424;2024-03-06T16:24:29;3.80;99.90
21563;DHT22;10942;47.894;11.424;2024-03-06T16:26:56;3.80;99.90
21563;DHT22;10942;47.894;11.424;2024-03-06T16:29:22;3.80;99.90
21563;DHT22;10942;47.894;11.424;2024-03-06T16:31:47;3.80;99.90
21563;DHT22;10942;47.894;11.424;2024-03-06T16:34:17;3.70;99.90
21563;DHT22;10942;47.894;11.424;2024-03-06T16:36:45;3.70;99.90
21563;DHT22;10942;47.894;11.424;2024-03-06T16:39:11;3.70;99.90
21563;DHT22;10942;47.894;11.424;2024-03-06T16:41:39;3.70;99.90
21563;DHT22;10942;47.894;11.424;2024-03-06T16:44:06;3.70;99.90
21563;DHT22;10942;47.894;11.424;2024-03-06T16:46:33;3.70;99.90
21563;DHT22;10942;47.894;11.424;2024-03-06T16:49:00;3.70;99.90
21563;DHT22;10942;47.894;11.424;2024-03-06T16:51:25;3.70;99.90
21563;DHT22;10942;47.894;11.424;2024-03-06T16:53:53;3.80;99.90
21563;DHT22;10942;47.894;11.424;2024-03-06T16:56:19;3.80;99.90
21563;DHT22;10942;47.894;11.424;2024-03-06T16:58:46;3.80;99.90
21563;DHT22;10942;47.894;11.424;2024-03-06T17:01:12;3.80;99.90
21563;DHT22;10942;47.894;11.424;2024-03-06T17:03:37;3.80;99.90
21563;DHT22;10942;47.894;11.424;2024-03-06T17:06:03;3.80;99.90
21563;DHT22;10942;47.894;11.424;2024-03-06T17:08:29;3.80;99.90
21563;DHT22;10942;47.894;11.424;2024-03-06T17:10:55;3.80;99.90
21563;DHT22;10942;47.894;11.424;2024-03-06T17:13:20;3.80;99.90
21563;DHT22;10942;47.894;11.424;2024-03-06T17:15:46;3.80;99.90
21563;DHT22;10942;47.894;11.424;2024-03-06T17:18:12;3.80;99.90
21563;DHT22;10942;47.894;11.424;2024-03-06T17:20:37;3.80;99.90
21563;DHT22;10942;47.894;11.424;2024-03-06T17:23:04;3.70;99.90
21563;DHT22;10942;47.894;11.424;2024-03-06T17:25:30;3.70;99.90
21563;DHT22;10942;47.894;11.424;2024-03-06T17:27:57;3.70;99.90
21563;DHT22;10942;47.894;11.424;2024-03-06T17:30:23;3.60;99.90
21563;DHT22;10942;47.894;11.424;2024-03-06T17:32:49;3.70;99.90
21563;DHT22;10942;47.894;11.424;2024-03-06T17:35:17;3.60;99.90
21563;DHT22;10942;47.894;11.424;2024-03-06T17:37:43;3.50;99.90
21563;DHT22;10942;47.894;11.424;2024-03-06T17:40:09;3.50;99.90
21563;DHT22;10942;47.894;11.424;2024-03-06T17:42:37;3.60;99.90
21563;DHT22;10942;47.894;11.424;2024-03-06T17:45:05;3.60;99.90
21563;DHT22;10942;47.894;11.424;2024-03-06T17:47:31;3.40;99.90
21563;DHT22;10942;47.894;11.424;2024-03-06T17:49:57;3.50;99.90
21563;DHT22;10942;47.894;11.424;2024-03-06T17:52:22;3.50;99.90
21563;DHT22;10942;47.894;11.424;2024-03-06T17:54:48;3.50;99.90
21563;DHT22;10942;47.894;11.424;2024-03-06T17:57:13;3.40;99.90
21563;DHT22;10942;47.894;11.424;2024-03-06T17:59:39;3.40;99.90
21563;DHT22;10942;47.894;11.424;2024-03-06T18:02:05;3.40;99.90
21563;DHT22;10942;47.894;11.424;2024-03-06T18:04:31;3.40;99.90
21563;DHT22;10942;47.894;11.424;2024-03-06T18:06:56;3.50;99.90
21563;DHT22;10942;47.894;11.424;2024-03-06T18:09:22;3.50;99.90
21563;DHT22;10942;47.894;11.424;2024-03-06T18:11:48;3.50;99.90
21563;DHT22;10942;47.894;11.424;2024-03-06T18:14:13;3.50;99.90
21563;DHT22;10942;47.894;11.424;2024-03-06T18:16:42;3.50;99.90
21563;DHT22;10942;47.894;11.424;2024-03-06T18:19:07;3.50;99.90
21563;DHT22;10942;47.894;11.424;2024-03-06T18:21:33;3.50;99.90